createdAt,value
2022-10-06T00:04:09.976Z,100245.48
2022-10-06T00:09:12.936Z,100247.27
2022-10-06T00:14:15.851Z,100250.80
2022-10-06T00:19:18.741Z,100250.66
2022-10-06T00:24:21.646Z,100255.83
2022-10-06T00:29:24.663Z,100261.16
2022-10-06T00:34:27.659Z,100263.86
2022-10-06T00:39:30.563Z,100258.20
2022-10-06T00:44:33.363Z,100257.36
2022-10-06T00:49:38.250Z,100252.52
2022-10-06T00:54:41.733Z,100255.70
2022-10-06T00:59:44.737Z,100251.56
2022-10-06T01:04:58.304Z,100248.08
2022-10-06T01:10:01.097Z,100251.95
2022-10-06T01:15:05.086Z,100248.66
2022-10-06T01:20:15.385Z,100249.55
2022-10-06T01:25:19.530Z,100249.20
2022-10-06T01:30:33.395Z,100247.45
2022-10-06T01:35:36.298Z,100245.92
2022-10-06T01:40:39.102Z,100247.02
2022-10-06T01:45:42.003Z,100250.91
2022-10-06T01:50:44.911Z,100249.00
2022-10-06T01:55:48.016Z,100251.97
2022-10-06T02:00:51.171Z,100247.24
2022-10-06T02:05:57.333Z,100248.13
2022-10-06T02:11:05.844Z,100248.17
2022-10-06T02:16:09.616Z,100249.94
2022-10-06T02:21:18.573Z,100252.42
2022-10-06T02:26:21.516Z,100255.77
2022-10-06T02:31:24.559Z,100259.61
2022-10-06T02:36:27.840Z,100261.76
2022-10-06T02:41:31.256Z,100260.21
2022-10-06T02:46:34.342Z,100268.45
2022-10-06T02:51:37.374Z,100265.14
2022-10-06T02:56:40.273Z,100268.84
2022-10-06T03:01:43.316Z,100274.31
2022-10-06T03:06:46.488Z,100276.42
2022-10-06T03:11:49.494Z,100278.92
2022-10-06T03:16:52.816Z,100279.61
2022-10-06T03:21:55.602Z,100275.95
2022-10-06T03:26:58.616Z,100273.70
2022-10-06T03:32:01.379Z,100280.22
2022-10-06T03:37:04.326Z,100287.42
2022-10-06T03:42:07.226Z,100289.02
2022-10-06T03:47:14.574Z,100289.05
2022-10-06T03:52:25.064Z,100289.59
2022-10-06T03:57:28.947Z,100298.72
2022-10-06T04:02:31.886Z,100302.58
2022-10-06T04:07:34.854Z,100313.23
2022-10-06T04:12:37.760Z,100319.87
2022-10-06T04:17:40.662Z,100321.03
2022-10-06T04:22:43.576Z,100321.84
2022-10-06T04:27:46.469Z,100327.42
2022-10-06T04:32:49.274Z,100330.74
2022-10-06T04:37:53.095Z,100338.05
2022-10-06T04:42:56.468Z,100339.58
2022-10-06T04:47:59.320Z,100341.89
2022-10-06T04:53:02.218Z,100344.42
2022-10-06T04:58:05.120Z,100346.27
2022-10-06T05:03:08.026Z,100345.86
2022-10-06T05:08:10.940Z,100346.14
2022-10-06T05:13:14.472Z,100355.49
2022-10-06T05:18:17.352Z,100373.39
2022-10-06T05:23:24.358Z,100375.70
2022-10-06T05:28:30.305Z,100381.11
2022-10-06T05:33:35.696Z,100370.23
2022-10-06T05:38:39.208Z,100382.69
2022-10-06T05:43:42.829Z,100395.84
2022-10-06T05:49:10.526Z,100401.50
2022-10-06T05:54:14.545Z,100404.23
2022-10-06T05:59:17.462Z,100412.02
2022-10-06T06:04:20.666Z,100414.59
2022-10-06T06:09:23.766Z,100414.70
2022-10-06T06:14:45.411Z,100409.65
2022-10-06T06:19:48.556Z,100433.40
2022-10-06T06:24:51.381Z,100438.16
2022-10-06T06:29:54.326Z,100444.00
2022-10-06T06:34:57.546Z,100446.39
2022-10-06T06:40:00.449Z,100448.78
2022-10-06T06:45:03.550Z,100449.15
2022-10-06T06:50:10.541Z,100448.34
2022-10-06T06:55:15.257Z,100453.59
2022-10-06T07:00:18.304Z,100459.52
2022-10-06T07:05:21.516Z,100476.35
2022-10-06T07:10:27.799Z,100492.91
2022-10-06T07:15:52.599Z,100506.27
2022-10-06T07:21:14.466Z,100508.41
2022-10-06T07:26:20.336Z,100514.27
2022-10-06T07:31:23.189Z,100520.51
2022-10-06T07:36:26.146Z,100526.77
2022-10-06T07:41:31.559Z,100542.25
2022-10-06T07:46:34.375Z,100535.76
2022-10-06T07:51:37.321Z,100535.86
2022-10-06T07:56:40.325Z,100559.98
2022-10-06T08:01:46.359Z,100570.41
2022-10-06T08:06:49.714Z,100582.15
2022-10-06T08:11:53.128Z,100581.48
2022-10-06T08:16:56.034Z,100574.45
2022-10-06T08:22:02.436Z,100585.11
2022-10-06T08:27:09.930Z,100597.73
2022-10-06T08:32:12.834Z,100597.86
2022-10-06T08:37:20.312Z,100614.90
2022-10-06T08:42:33.362Z,100624.64
2022-10-06T08:47:37.181Z,100632.16
2022-10-06T08:52:52.419Z,100634.86
2022-10-06T08:58:13.953Z,100630.00
2022-10-06T09:03:24.128Z,100647.85
2022-10-06T09:08:58.667Z,100666.70
2022-10-06T09:14:12.941Z,100670.45
2022-10-06T09:19:24.796Z,100662.91
2022-10-06T09:24:47.580Z,100667.13
2022-10-06T09:29:51.677Z,100674.53
2022-10-06T09:34:57.502Z,100677.20
2022-10-06T09:40:00.430Z,100689.02
2022-10-06T09:45:06.768Z,100692.05
2022-10-06T09:50:12.398Z,100700.02
2022-10-06T09:55:19.387Z,100713.60
2022-10-06T10:00:48.242Z,100725.09
2022-10-06T10:05:55.052Z,100744.40
2022-10-06T10:11:28.600Z,100757.36
2022-10-06T10:16:35.753Z,100770.06
2022-10-06T10:21:41.386Z,100787.91
2022-10-06T10:26:55.349Z,100787.88
2022-10-06T10:32:13.012Z,100790.71
2022-10-06T10:37:37.407Z,100801.28
2022-10-06T10:42:45.672Z,100800.15
2022-10-06T10:47:49.565Z,100800.41
2022-10-06T10:52:57.401Z,100800.77
2022-10-06T10:58:11.960Z,100810.14
2022-10-06T11:03:14.758Z,100814.99
2022-10-06T11:08:29.954Z,100813.20
2022-10-06T11:13:38.488Z,100823.34
2022-10-06T11:19:20.816Z,100831.50
2022-10-06T11:24:31.990Z,100833.95
2022-10-06T11:29:40.859Z,100849.17
2022-10-06T11:34:48.346Z,100853.23
2022-10-06T11:39:58.714Z,100852.58
2022-10-06T11:45:14.043Z,100861.24
2022-10-06T11:50:32.208Z,100866.85
2022-10-06T11:55:35.112Z,100874.79
2022-10-06T12:00:38.016Z,100888.28
2022-10-06T12:05:57.264Z,100897.55
2022-10-06T12:11:03.071Z,100904.42
2022-10-06T12:22:00.041Z,100926.91
2022-10-06T12:27:24.987Z,100932.17
2022-10-06T12:32:53.712Z,100931.63
2022-10-06T12:38:00.645Z,100936.20
2022-10-06T12:43:18.361Z,100938.26
2022-10-06T12:48:23.927Z,100935.20
2022-10-06T12:53:36.333Z,100935.16
2022-10-06T12:58:39.903Z,100947.52
2022-10-06T13:03:47.999Z,100950.26
2022-10-06T13:09:14.155Z,100957.88
2022-10-06T13:14:17.458Z,100958.13
2022-10-06T13:19:28.442Z,100963.88
2022-10-06T13:24:31.481Z,100967.08
2022-10-06T13:29:34.466Z,100970.89
2022-10-06T13:34:43.433Z,100983.27
2022-10-06T13:39:46.796Z,100989.74
2022-10-06T13:45:03.144Z,101005.91
2022-10-06T13:50:07.829Z,101009.48
2022-10-06T13:55:27.187Z,101019.61
2022-10-06T14:00:32.380Z,101025.62
2022-10-06T14:05:41.917Z,101027.22
2022-10-06T14:10:52.607Z,101029.38
2022-10-06T14:16:00.671Z,101039.42
2022-10-06T14:21:19.282Z,101040.59
2022-10-06T14:26:31.313Z,101049.13
2022-10-06T14:31:35.609Z,101052.45
2022-10-06T14:36:38.519Z,101060.55
2022-10-06T14:41:42.072Z,101066.48
2022-10-06T14:46:49.377Z,101074.19
2022-10-06T14:51:56.471Z,101085.16
2022-10-06T14:56:59.476Z,101091.19
2022-10-06T15:02:03.304Z,101091.46
2022-10-06T15:07:25.151Z,101095.62
2022-10-06T15:12:33.114Z,101105.70
2022-10-06T15:17:37.925Z,101110.67
2022-10-06T15:22:41.972Z,101124.05
2022-10-06T15:28:03.541Z,101132.95
2022-10-06T15:33:06.910Z,101144.55
2022-10-06T15:38:09.924Z,101148.98
2022-10-06T15:43:12.822Z,101149.86
2022-10-06T15:48:15.725Z,101157.77
2022-10-06T15:53:18.941Z,101164.83
2022-10-06T15:58:22.795Z,101174.22
2022-10-06T16:03:40.971Z,101188.20
2022-10-06T16:08:44.339Z,101194.06
2022-10-06T16:13:52.054Z,101203.17
2022-10-06T16:18:55.165Z,101212.31
2022-10-06T16:24:00.750Z,101215.95
2022-10-06T16:29:04.561Z,101222.20
2022-10-06T16:34:08.072Z,101229.48
2022-10-06T16:39:16.067Z,101238.05
2022-10-06T16:44:19.207Z,101250.30
2022-10-06T16:49:24.654Z,101263.92
2022-10-06T16:54:30.649Z,101271.73
2022-10-06T16:59:33.553Z,101280.93
2022-10-06T17:04:37.070Z,101289.59
2022-10-06T17:09:55.845Z,101295.58
2022-10-06T17:15:02.849Z,101307.73
2022-10-06T17:20:06.391Z,101311.42
2022-10-06T17:25:09.783Z,101313.91
2022-10-06T17:30:15.043Z,101309.56
2022-10-06T17:35:19.112Z,101313.77
2022-10-06T17:40:21.978Z,101315.70
2022-10-06T17:45:25.958Z,101317.98
2022-10-06T17:50:29.013Z,101326.39
2022-10-06T17:55:31.916Z,101331.45
2022-10-06T18:00:34.927Z,101335.13
2022-10-06T18:05:39.262Z,101341.42
2022-10-06T18:11:35.625Z,101346.48
2022-10-06T18:16:39.728Z,101350.16
2022-10-06T18:21:44.710Z,101356.25
2022-10-06T18:26:50.026Z,101360.79
2022-10-06T18:31:53.896Z,101364.45
2022-10-06T18:36:56.894Z,101369.14
2022-10-06T18:42:03.043Z,101368.08
2022-10-06T18:47:24.618Z,101371.89
2022-10-06T18:52:27.623Z,101375.17
2022-10-06T18:57:30.531Z,101380.56
2022-10-06T19:02:33.346Z,101387.35
2022-10-06T19:07:36.242Z,101389.05
2022-10-06T19:12:39.243Z,101393.04
2022-10-06T19:17:45.830Z,101401.20
2022-10-06T19:22:48.636Z,101409.37
2022-10-06T19:27:54.509Z,101418.07
2022-10-06T19:32:57.438Z,101423.25
2022-10-06T19:38:00.318Z,101426.88
2022-10-06T19:43:03.258Z,101435.05
2022-10-06T19:48:06.122Z,101437.44
2022-10-06T19:53:09.030Z,101438.95
2022-10-06T19:58:11.827Z,101441.49
2022-10-06T20:03:14.561Z,101446.34
2022-10-06T20:08:17.891Z,101453.81
2022-10-06T20:13:20.645Z,101457.09
2022-10-06T20:18:25.593Z,101460.04
2022-10-06T20:23:28.397Z,101467.85
2022-10-06T20:28:33.875Z,101462.80
2022-10-06T20:33:36.868Z,101470.29
2022-10-06T20:38:59.329Z,101464.36
2022-10-06T20:44:04.075Z,101465.73
2022-10-06T20:49:09.644Z,101463.40
2022-10-06T20:54:14.121Z,101461.61
2022-10-06T20:59:18.425Z,101464.89
2022-10-06T21:04:22.050Z,101471.02
2022-10-06T21:09:25.071Z,101474.86
2022-10-06T21:14:28.373Z,101477.14
2022-10-06T21:19:31.789Z,101477.63
2022-10-06T21:24:34.811Z,101481.77
2022-10-06T21:29:38.206Z,101483.15
2022-10-06T21:34:41.212Z,101483.30
2022-10-06T21:39:44.118Z,101489.05
2022-10-06T21:44:47.121Z,101487.67
2022-10-06T21:49:50.025Z,101488.70
2022-10-06T21:54:53.058Z,101487.29
2022-10-06T21:59:55.936Z,101485.16
2022-10-06T22:04:59.148Z,101488.80
2022-10-06T22:10:02.271Z,101486.20
2022-10-06T22:15:05.879Z,101484.79
2022-10-06T22:20:09.577Z,101481.62
2022-10-06T22:25:12.504Z,101476.92
2022-10-06T22:30:15.407Z,101470.25
2022-10-06T22:35:18.314Z,101470.91
2022-10-06T22:40:21.214Z,101472.30
2022-10-06T22:45:24.227Z,101470.86
2022-10-06T22:50:27.132Z,101473.24
2022-10-06T22:55:30.028Z,101469.86
2022-10-06T23:00:33.123Z,101474.67
2022-10-06T23:05:37.303Z,101477.21
2022-10-06T23:10:40.175Z,101479.61
2022-10-06T23:15:43.810Z,101485.13
2022-10-06T23:20:46.700Z,101486.48
2022-10-06T23:25:49.606Z,101491.52
2022-10-06T23:30:52.507Z,101496.56
2022-10-06T23:35:57.871Z,101500.06
2022-10-06T23:41:00.978Z,101502.31
2022-10-06T23:46:04.528Z,101498.60
2022-10-06T23:51:13.520Z,101500.11
2022-10-06T23:56:16.653Z,101496.89
